createdAt,value
2018-12-21T00:00:40.514Z,204.07
2018-12-21T00:03:11.450Z,207.10
2018-12-21T00:05:42.582Z,213.43
2018-12-21T00:08:13.744Z,217.50
2018-12-21T00:10:44.443Z,208.07
2018-12-21T00:13:15.390Z,211.53
2018-12-21T00:15:47.161Z,183.60
2018-12-21T00:18:18.502Z,182.27
2018-12-21T00:20:49.796Z,187.10
2018-12-21T00:23:20.833Z,189.03
2018-12-21T00:25:51.774Z,190.73
2018-12-21T00:28:22.855Z,200.23
2018-12-21T00:30:58.895Z,182.07
2018-12-21T00:33:34.833Z,180.90
2018-12-21T00:36:10.729Z,166.70
2018-12-21T00:38:46.973Z,172.33
2018-12-21T00:41:17.774Z,190.37
2018-12-21T00:44:11.449Z,177.13
2018-12-21T00:46:46.566Z,174.70
2018-12-21T00:49:19.051Z,196.47
2018-12-21T00:51:49.869Z,169.17
2018-12-21T00:54:20.732Z,184.03
2018-12-21T00:56:51.243Z,173.60
2018-12-21T00:59:21.956Z,183.70
2018-12-21T01:01:53.495Z,171.50
2018-12-21T01:04:24.407Z,158.83
2018-12-21T01:06:55.213Z,185.00
2018-12-21T01:09:26.747Z,200.03
2018-12-21T01:11:58.355Z,180.27
2018-12-21T01:14:29.249Z,178.77
2018-12-21T01:17:00.737Z,183.57
2018-12-21T01:19:37.441Z,200.87
2018-12-21T01:22:10.548Z,198.67
2018-12-21T01:24:43.979Z,195.20
2018-12-21T01:27:17.295Z,203.17
2018-12-21T01:29:48.114Z,173.53
2018-12-21T01:32:19.971Z,176.43
2018-12-21T01:34:52.522Z,176.80
2018-12-21T01:37:28.303Z,192.57
2018-12-21T01:40:01.183Z,189.03
2018-12-21T01:42:36.698Z,165.37
2018-12-21T01:45:14.379Z,175.43
2018-12-21T01:47:50.026Z,181.90
2018-12-21T01:50:23.572Z,188.67
2018-12-21T01:52:54.122Z,166.80
2018-12-21T01:55:25.090Z,181.80
2018-12-21T01:57:56.184Z,184.33
2018-12-21T02:00:29.137Z,182.90
2018-12-21T02:02:59.907Z,160.80
2018-12-21T02:05:39.158Z,184.13
2018-12-21T02:08:13.841Z,178.47
2018-12-21T02:10:45.199Z,169.73
2018-12-21T02:13:18.406Z,182.33
2018-12-21T02:15:49.226Z,189.67
2018-12-21T02:18:23.659Z,185.40
2018-12-21T02:20:56.839Z,195.03
2018-12-21T02:23:29.541Z,183.33
2018-12-21T02:26:00.802Z,191.43
2018-12-21T02:28:33.270Z,190.70
2018-12-21T02:31:04.560Z,180.30
2018-12-21T02:33:35.378Z,175.60
2018-12-21T02:36:05.908Z,172.07
2018-12-21T02:38:36.475Z,179.17
2018-12-21T02:41:07.149Z,188.90
2018-12-21T02:43:37.963Z,163.00
2018-12-21T02:46:08.527Z,182.50
2018-12-21T02:48:39.280Z,165.27
2018-12-21T02:51:09.895Z,161.20
2018-12-21T02:53:46.043Z,170.40
2018-12-21T02:56:19.822Z,189.07
2018-12-21T02:58:53.518Z,155.03
2018-12-21T03:01:24.750Z,145.57
2018-12-21T03:03:57.962Z,171.43
2018-12-21T03:06:29.349Z,170.00
2018-12-21T03:08:59.947Z,164.60
2018-12-21T03:11:35.472Z,152.87
2018-12-21T03:14:07.691Z,151.43
2018-12-21T03:16:43.267Z,173.70
2018-12-21T03:19:17.782Z,164.53
2018-12-21T03:21:48.491Z,186.10
2018-12-21T03:24:19.160Z,170.93
2018-12-21T03:26:55.560Z,172.73
2018-12-21T03:29:28.942Z,167.20
2018-12-21T03:32:00.294Z,160.57
2018-12-21T03:34:31.256Z,163.50
2018-12-21T03:37:09.517Z,200.43
2018-12-21T03:39:42.783Z,167.57
2018-12-21T03:42:17.459Z,149.80
2018-12-21T03:44:52.883Z,174.40
2018-12-21T03:47:23.844Z,167.40
2018-12-21T03:49:54.572Z,148.47
2018-12-21T03:52:28.618Z,149.03
2018-12-21T03:54:59.918Z,165.30
2018-12-21T03:57:31.838Z,200.30
2018-12-21T04:00:11.570Z,164.43
2018-12-21T04:02:42.535Z,180.80
2018-12-21T04:05:13.058Z,279.30
2018-12-21T04:07:43.610Z,198.53
2018-12-21T04:10:14.593Z,166.60
2018-12-21T04:12:45.487Z,217.53
2018-12-21T04:15:16.109Z,183.70
2018-12-21T04:17:47.445Z,206.40
2018-12-21T04:20:19.677Z,158.37
2018-12-21T04:22:50.993Z,139.70
2018-12-21T04:25:21.954Z,170.13
2018-12-21T04:27:55.959Z,159.13
2018-12-21T04:30:27.023Z,157.33
2018-12-21T04:33:00.618Z,154.63
2018-12-21T04:35:34.054Z,156.70
2018-12-21T04:38:06.887Z,146.77
2018-12-21T04:40:38.491Z,129.70
2018-12-21T04:43:09.362Z,138.77
2018-12-21T04:45:41.902Z,137.50
2018-12-21T04:48:16.581Z,165.03
2018-12-21T04:50:49.844Z,138.50
2018-12-21T04:53:23.178Z,144.87
2018-12-21T04:55:54.995Z,171.13
2018-12-21T04:58:27.758Z,146.03
2018-12-21T05:00:58.398Z,139.77
2018-12-21T05:03:28.932Z,142.43
2018-12-21T05:06:00.119Z,143.03
2018-12-21T05:08:34.006Z,132.00
2018-12-21T05:11:12.943Z,144.90
2018-12-21T05:13:46.115Z,137.47
2018-12-21T05:16:17.406Z,134.70
2018-12-21T05:18:48.191Z,139.90
2018-12-21T05:21:18.939Z,141.10
2018-12-21T05:23:49.638Z,124.97
2018-12-21T05:26:20.675Z,128.80
2018-12-21T05:28:51.805Z,127.70
2018-12-21T05:31:28.278Z,122.23
2018-12-21T05:33:56.188Z,120.73
2018-12-21T05:36:26.969Z,128.00
2018-12-21T05:39:00.634Z,124.77
2018-12-21T05:41:31.614Z,126.90
2018-12-21T05:44:06.309Z,116.20
2018-12-21T05:46:41.322Z,130.47
2018-12-21T05:49:12.079Z,127.43
2018-12-21T05:51:43.141Z,139.20
2018-12-21T05:54:19.168Z,133.80
2018-12-21T05:56:53.994Z,126.20
2018-12-21T05:59:26.270Z,131.13
2018-12-21T06:01:58.904Z,130.67
2018-12-21T06:04:31.119Z,142.73
2018-12-21T06:07:08.018Z,158.80
2018-12-21T06:09:45.280Z,155.23
2018-12-21T06:12:18.085Z,157.97
2018-12-21T06:14:49.481Z,153.93
2018-12-21T06:17:22.510Z,156.13
2018-12-21T06:19:54.920Z,152.07
2018-12-21T06:22:29.460Z,155.20
2018-12-21T06:25:00.489Z,163.67
2018-12-21T06:27:35.406Z,168.77
2018-12-21T06:30:17.486Z,150.37
2018-12-21T06:32:55.655Z,162.20
2018-12-21T06:35:29.708Z,162.50
2018-12-21T06:38:01.049Z,152.70
2018-12-21T06:40:32.587Z,136.03
2018-12-21T06:43:04.569Z,132.77
2018-12-21T06:45:39.274Z,132.73
2018-12-21T06:48:13.448Z,136.43
2018-12-21T06:50:44.782Z,132.23
2018-12-21T06:53:18.012Z,129.90
2018-12-21T06:55:53.747Z,128.80
2018-12-21T06:58:24.771Z,129.50
2018-12-21T07:00:55.938Z,136.77
2018-12-21T07:03:26.863Z,149.33
2018-12-21T07:05:59.835Z,145.67
2018-12-21T07:08:30.800Z,147.00
2018-12-21T07:11:05.097Z,150.07
2018-12-21T07:13:38.980Z,155.23
2018-12-21T07:16:12.265Z,146.23
2018-12-21T07:18:51.595Z,161.70
2018-12-21T07:21:22.842Z,141.00
2018-12-21T07:23:53.883Z,146.57
2018-12-21T07:26:26.562Z,152.33
2018-12-21T07:28:58.170Z,141.17
2018-12-21T07:31:31.739Z,148.03
2018-12-21T07:34:05.066Z,141.40
2018-12-21T07:36:36.814Z,136.00
2018-12-21T07:39:13.177Z,140.80
2018-12-21T07:41:44.576Z,159.70
2018-12-21T07:44:18.218Z,149.33
2018-12-21T07:46:50.599Z,162.50
2018-12-21T07:49:26.270Z,159.40
2018-12-21T07:52:07.553Z,143.57
2018-12-21T07:54:40.762Z,130.87
2018-12-21T07:57:12.974Z,130.63
2018-12-21T07:59:45.672Z,130.53
2018-12-21T08:02:19.279Z,128.90
2018-12-21T08:04:49.806Z,128.63
2018-12-21T08:07:20.473Z,134.27
2018-12-21T08:09:51.118Z,131.27
2018-12-21T08:12:22.004Z,128.00
2018-12-21T08:14:52.613Z,123.67
2018-12-21T08:17:24.600Z,133.83
2018-12-21T08:19:56.985Z,127.17
2018-12-21T08:22:29.900Z,123.87
2018-12-21T08:25:01.147Z,116.67
2018-12-21T08:27:32.855Z,137.33
2018-12-21T08:30:10.730Z,135.57
2018-12-21T08:32:42.256Z,116.90
2018-12-21T08:35:12.776Z,129.33
2018-12-21T08:37:43.740Z,122.07
2018-12-21T08:40:15.228Z,111.10
2018-12-21T08:42:46.387Z,114.77
2018-12-21T08:45:19.635Z,121.23
2018-12-21T08:47:53.409Z,105.50
2018-12-21T08:50:24.245Z,112.07
2018-12-21T08:52:57.070Z,102.47
2018-12-21T08:55:27.964Z,103.80
2018-12-21T08:58:04.770Z,114.77
2018-12-21T09:00:38.022Z,107.60
2018-12-21T09:03:09.657Z,104.93
2018-12-21T09:05:51.050Z,114.67
2018-12-21T09:08:22.217Z,104.10
2018-12-21T09:10:58.914Z,112.17
2018-12-21T09:13:33.882Z,113.83
2018-12-21T09:16:07.257Z,115.97
2018-12-21T09:18:39.427Z,122.17
2018-12-21T09:21:14.290Z,106.53
2018-12-21T09:23:46.805Z,115.07
2018-12-21T09:26:20.079Z,116.23
2018-12-21T09:28:51.645Z,121.77
2018-12-21T09:31:24.358Z,100.47
2018-12-21T09:33:57.473Z,107.60
2018-12-21T09:36:30.325Z,100.23
2018-12-21T09:39:00.941Z,97.87
2018-12-21T09:41:37.280Z,98.70
2018-12-21T09:44:08.330Z,105.53
2018-12-21T09:46:42.324Z,99.53
2018-12-21T09:49:16.450Z,81.30
2018-12-21T09:51:52.225Z,90.53
2018-12-21T09:54:23.491Z,98.47
2018-12-21T09:56:55.069Z,97.67
2018-12-21T09:59:28.114Z,93.60
2018-12-21T10:02:07.250Z,100.13
2018-12-21T10:04:37.951Z,104.00
2018-12-21T10:07:08.858Z,88.70
2018-12-21T10:09:45.341Z,97.63
2018-12-21T10:12:18.574Z,90.43
2018-12-21T10:14:52.333Z,99.60
2018-12-21T10:17:25.524Z,105.93
2018-12-21T10:19:56.113Z,101.93
2018-12-21T10:22:26.925Z,95.43
2018-12-21T10:24:57.612Z,96.53
2018-12-21T10:27:37.260Z,102.10
2018-12-21T10:30:13.590Z,98.40
2018-12-21T10:32:44.325Z,101.03
2018-12-21T10:35:15.290Z,93.43
2018-12-21T10:37:46.014Z,95.00
2018-12-21T10:40:19.410Z,100.10
2018-12-21T10:42:52.478Z,94.57
2018-12-21T10:45:23.866Z,95.83
2018-12-21T10:47:56.886Z,105.83
2018-12-21T10:50:28.138Z,96.67
2018-12-21T10:53:01.839Z,106.67
2018-12-21T10:55:35.355Z,111.20
2018-12-21T10:58:05.899Z,120.57
2018-12-21T11:00:36.840Z,109.37
2018-12-21T11:03:07.361Z,119.40
2018-12-21T11:05:38.122Z,118.73
2018-12-21T11:08:08.941Z,111.70
2018-12-21T11:10:42.663Z,123.97
2018-12-21T11:13:16.656Z,112.57
2018-12-21T11:15:48.855Z,132.77
2018-12-21T11:18:19.492Z,124.20
2018-12-21T11:20:52.814Z,120.23
2018-12-21T11:23:24.987Z,119.67
2018-12-21T11:25:57.463Z,112.07
2018-12-21T11:28:28.166Z,132.77
2018-12-21T11:31:08.428Z,124.90
2018-12-21T11:33:40.821Z,118.57
2018-12-21T11:36:12.450Z,119.90
2018-12-21T11:38:44.757Z,125.27
2018-12-21T11:41:15.835Z,116.97
2018-12-21T11:43:46.469Z,120.27
2018-12-21T11:46:17.081Z,118.10
2018-12-21T11:48:48.181Z,107.80
2018-12-21T11:51:21.105Z,122.80
2018-12-21T11:53:53.842Z,120.97
2018-12-21T11:56:30.657Z,112.30
2018-12-21T11:59:01.298Z,109.77
2018-12-21T12:01:35.730Z,107.53
2018-12-21T12:04:06.988Z,116.53
2018-12-21T12:06:37.814Z,108.27
2018-12-21T12:09:08.812Z,122.90
2018-12-21T12:11:39.831Z,114.27
2018-12-21T12:14:13.963Z,106.83
2018-12-21T12:16:48.322Z,108.47
2018-12-21T12:19:20.020Z,110.77
2018-12-21T12:21:51.788Z,110.67
2018-12-21T12:24:27.412Z,106.20
2018-12-21T12:26:58.371Z,100.43
2018-12-21T12:29:29.462Z,105.97
2018-12-21T12:32:01.024Z,100.90
2018-12-21T12:34:32.342Z,100.87
2018-12-21T12:37:04.270Z,96.13
2018-12-21T12:39:37.173Z,100.57
2018-12-21T12:42:11.623Z,91.00
2018-12-21T12:44:44.127Z,94.10
2018-12-21T12:47:17.256Z,99.57
2018-12-21T12:49:48.774Z,94.90
2018-12-21T12:52:19.446Z,90.50
2018-12-21T12:54:50.290Z,80.53
2018-12-21T12:57:22.949Z,85.73
2018-12-21T12:59:55.349Z,83.80
2018-12-21T13:02:28.168Z,74.50
2018-12-21T13:05:01.444Z,82.20
2018-12-21T13:07:33.385Z,83.93
2018-12-21T13:10:11.566Z,73.10
2018-12-21T13:12:43.202Z,80.10
2018-12-21T13:15:16.191Z,72.10
2018-12-21T13:17:47.482Z,69.53
2018-12-21T13:20:19.775Z,85.60
2018-12-21T13:22:58.410Z,71.17
2018-12-21T13:25:29.136Z,75.57
2018-12-21T13:27:59.914Z,75.63
2018-12-21T13:30:30.474Z,77.67
2018-12-21T13:33:01.270Z,80.73
2018-12-21T13:35:35.112Z,75.33
2018-12-21T13:38:09.454Z,67.23
2018-12-21T13:40:42.347Z,79.17
2018-12-21T13:43:16.141Z,76.60
2018-12-21T13:45:48.271Z,77.37
2018-12-21T13:48:19.221Z,72.60
2018-12-21T13:50:49.750Z,82.60
2018-12-21T13:53:20.282Z,78.10
2018-12-21T13:55:51.102Z,73.90
2018-12-21T13:58:21.718Z,81.97
2018-12-21T14:00:52.260Z,82.20
2018-12-21T14:03:23.290Z,82.50
2018-12-21T14:05:53.822Z,77.13
2018-12-21T14:08:25.308Z,78.53
2018-12-21T14:10:58.377Z,85.07
2018-12-21T14:13:32.310Z,78.87
2018-12-21T14:16:05.106Z,73.20
2018-12-21T14:18:37.841Z,86.60
2018-12-21T14:21:10.443Z,75.83
2018-12-21T14:23:42.655Z,90.80
2018-12-21T14:26:13.740Z,83.73
2018-12-21T14:28:45.295Z,80.10
2018-12-21T14:31:16.330Z,78.50
2018-12-21T14:33:47.796Z,74.77
2018-12-21T14:36:21.563Z,84.33
2018-12-21T14:38:56.607Z,77.07
2018-12-21T14:41:28.329Z,84.17
2018-12-21T14:44:01.622Z,81.70
2018-12-21T14:46:34.912Z,73.83
2018-12-21T14:49:05.629Z,88.10
2018-12-21T14:51:37.640Z,73.67
2018-12-21T14:54:10.450Z,74.43
2018-12-21T14:56:43.794Z,78.20
2018-12-21T14:59:16.746Z,88.10
2018-12-21T15:01:49.074Z,84.67
2018-12-21T15:04:24.247Z,77.70
2018-12-21T15:06:54.762Z,80.47
2018-12-21T15:09:26.253Z,75.30
2018-12-21T15:11:59.815Z,76.13
2018-12-21T15:14:31.014Z,82.07
2018-12-21T15:17:02.125Z,86.80
2018-12-21T15:19:34.964Z,90.13
2018-12-21T15:22:07.798Z,83.13
2018-12-21T15:24:40.502Z,104.03
2018-12-21T15:27:13.945Z,86.13
2018-12-21T15:29:44.761Z,92.97
2018-12-21T15:32:17.574Z,90.47
2018-12-21T15:34:48.407Z,92.37
2018-12-21T15:37:18.939Z,93.30
2018-12-21T15:39:52.476Z,99.67
2018-12-21T15:42:26.764Z,110.27
2018-12-21T15:45:00.169Z,94.90
2018-12-21T15:47:40.135Z,114.67
2018-12-21T15:50:16.932Z,98.93
2018-12-21T15:52:50.115Z,99.57
2018-12-21T15:55:28.224Z,98.10
2018-12-21T15:58:00.314Z,107.13
2018-12-21T16:00:33.981Z,99.17
2018-12-21T16:03:06.053Z,100.63
2018-12-21T16:05:38.225Z,98.40
2018-12-21T16:08:11.386Z,98.90
2018-12-21T16:10:42.517Z,100.43
2018-12-21T16:13:15.767Z,100.70
2018-12-21T16:15:50.010Z,90.00
2018-12-21T16:18:23.012Z,97.57
2018-12-21T16:20:54.083Z,91.00
2018-12-21T16:23:24.903Z,99.63
2018-12-21T16:26:03.530Z,104.90
2018-12-21T16:28:32.222Z,95.47
2018-12-21T16:31:05.757Z,98.20
2018-12-21T16:33:38.967Z,100.13
2018-12-21T16:36:09.933Z,97.47
2018-12-21T16:38:42.326Z,89.93
2018-12-21T16:41:16.146Z,92.43
2018-12-21T16:43:50.748Z,93.60
2018-12-21T16:46:22.639Z,89.80
2018-12-21T16:48:53.341Z,94.93
2018-12-21T16:51:23.974Z,96.60
2018-12-21T16:53:54.758Z,95.07
2018-12-21T16:56:25.268Z,95.57
2018-12-21T16:58:55.926Z,95.43
2018-12-21T17:01:26.510Z,87.50
2018-12-21T17:03:57.271Z,94.00
2018-12-21T17:06:30.441Z,103.80
2018-12-21T17:09:01.197Z,90.80
2018-12-21T17:11:34.254Z,84.27
2018-12-21T17:14:07.060Z,91.73
2018-12-21T17:16:43.336Z,87.73
2018-12-21T17:19:18.575Z,85.73
2018-12-21T17:21:53.220Z,81.50
2018-12-21T17:24:26.550Z,99.40
2018-12-21T17:27:00.188Z,88.10
2018-12-21T17:29:32.346Z,90.93
2018-12-21T17:32:03.590Z,95.40
2018-12-21T17:34:34.528Z,92.13
2018-12-21T17:37:05.102Z,93.63
2018-12-21T17:39:35.700Z,94.03
2018-12-21T17:42:06.435Z,100.83
2018-12-21T17:44:36.955Z,97.60
2018-12-21T17:47:07.644Z,99.13
2018-12-21T17:49:38.808Z,98.90
2018-12-21T17:52:09.776Z,88.83
2018-12-21T17:54:40.725Z,96.07
2018-12-21T17:57:13.946Z,86.80
2018-12-21T17:59:50.555Z,87.40
2018-12-21T18:02:23.890Z,92.03
2018-12-21T18:05:00.527Z,95.30
2018-12-21T18:07:31.224Z,87.77
2018-12-21T18:10:02.126Z,91.70
2018-12-21T18:12:42.417Z,106.87
2018-12-21T18:15:14.030Z,95.77
2018-12-21T18:17:45.223Z,100.50
2018-12-21T18:20:15.529Z,83.47
2018-12-21T18:22:46.367Z,92.63
2018-12-21T18:25:20.870Z,98.00
2018-12-21T18:27:55.006Z,87.73
2018-12-21T18:30:37.260Z,82.50
2018-12-21T18:33:11.700Z,86.63
2018-12-21T18:35:43.472Z,91.73
2018-12-21T18:38:18.253Z,84.73
2018-12-21T18:40:50.533Z,78.37
2018-12-21T18:43:21.884Z,85.83
2018-12-21T18:45:52.711Z,92.77
2018-12-21T18:48:23.489Z,88.00
2018-12-21T18:50:54.046Z,87.63
2018-12-21T18:53:24.859Z,90.07
2018-12-21T18:55:58.217Z,89.17
2018-12-21T18:58:31.615Z,93.50
2018-12-21T19:01:02.135Z,93.47
2018-12-21T19:03:36.747Z,79.30
2018-12-21T19:06:08.329Z,83.17
2018-12-21T19:08:41.646Z,87.93
2018-12-21T19:11:14.531Z,85.60
2018-12-21T19:13:45.281Z,90.77
2018-12-21T19:16:16.518Z,76.40
2018-12-21T19:18:51.066Z,82.97
2018-12-21T19:21:24.940Z,82.70
2018-12-21T19:23:57.020Z,90.73
2018-12-21T19:26:28.199Z,92.60
2018-12-21T19:29:04.268Z,84.93
2018-12-21T19:31:35.050Z,89.27
2018-12-21T19:34:05.582Z,89.37
2018-12-21T19:36:38.630Z,88.90
2018-12-21T19:39:11.806Z,91.37
2018-12-21T19:41:43.918Z,84.07
2018-12-21T19:44:17.063Z,85.80
2018-12-21T19:46:50.835Z,89.97
2018-12-21T19:49:21.984Z,89.10
2018-12-21T19:51:54.825Z,77.43
2018-12-21T19:54:25.710Z,80.10
2018-12-21T19:57:14.044Z,94.03
2018-12-21T19:59:46.925Z,82.27
2018-12-21T20:02:20.136Z,80.63
2018-12-21T20:04:54.634Z,76.63
2018-12-21T20:07:26.881Z,78.27
2018-12-21T20:09:57.979Z,80.90
2018-12-21T20:12:28.978Z,80.43
2018-12-21T20:15:02.880Z,86.03
2018-12-21T20:17:39.887Z,94.03
2018-12-21T20:20:16.833Z,87.90
2018-12-21T20:22:49.807Z,82.53
2018-12-21T20:25:23.312Z,81.90
2018-12-21T20:27:56.204Z,87.73
2018-12-21T20:30:26.987Z,78.93
2018-12-21T20:32:58.554Z,89.23
2018-12-21T20:35:31.977Z,88.20
2018-12-21T20:38:05.532Z,84.03
2018-12-21T20:40:37.854Z,86.13
2018-12-21T20:43:11.874Z,92.87
2018-12-21T20:45:44.298Z,86.47
2018-12-21T20:48:17.287Z,84.70
2018-12-21T20:50:50.337Z,91.13
2018-12-21T20:53:20.947Z,87.17
2018-12-21T20:55:52.254Z,77.27
2018-12-21T20:58:34.095Z,83.23
2018-12-21T21:01:05.602Z,75.80
2018-12-21T21:03:39.514Z,81.73
2018-12-21T21:06:11.572Z,74.40
2018-12-21T21:08:43.367Z,91.10
2018-12-21T21:11:14.421Z,84.20
2018-12-21T21:13:46.502Z,81.27
2018-12-21T21:16:19.675Z,83.33
2018-12-21T21:18:52.380Z,88.97
2018-12-21T21:21:23.201Z,86.60
2018-12-21T21:23:54.742Z,92.20
2018-12-21T21:26:27.510Z,80.43
2018-12-21T21:28:58.187Z,75.43
2018-12-21T21:31:31.055Z,79.33
2018-12-21T21:34:01.973Z,79.43
2018-12-21T21:36:35.531Z,78.33
2018-12-21T21:39:08.311Z,78.10
2018-12-21T21:41:39.997Z,73.67
2018-12-21T21:44:11.348Z,76.10
2018-12-21T21:46:44.436Z,73.93
2018-12-21T21:49:16.030Z,80.20
2018-12-21T21:51:55.799Z,74.23
2018-12-21T21:54:29.442Z,75.90
2018-12-21T21:57:02.485Z,72.77
2018-12-21T21:59:35.353Z,69.10
2018-12-21T22:02:39.437Z,70.67
2018-12-21T22:05:11.502Z,100.17
2018-12-21T22:07:46.007Z,73.37
2018-12-21T22:10:17.462Z,72.23
2018-12-21T22:12:48.663Z,80.67
2018-12-21T22:15:19.600Z,79.97
2018-12-21T22:17:51.008Z,79.60
2018-12-21T22:20:25.093Z,79.30
2018-12-21T22:23:00.208Z,77.37
2018-12-21T22:25:31.538Z,74.80
2018-12-21T22:28:02.057Z,70.00
2018-12-21T22:30:35.535Z,80.20
2018-12-21T22:33:08.887Z,75.97
2018-12-21T22:35:39.765Z,79.70
2018-12-21T22:38:11.343Z,70.20
2018-12-21T22:40:43.417Z,77.90
2018-12-21T22:43:14.446Z,81.67
2018-12-21T22:45:47.453Z,82.53
2018-12-21T22:48:18.730Z,75.93
2018-12-21T22:50:51.025Z,77.07
2018-12-21T22:53:22.469Z,78.07
2018-12-21T22:55:53.556Z,73.50
2018-12-21T22:58:24.726Z,77.90
2018-12-21T23:00:57.758Z,77.60
2018-12-21T23:03:31.767Z,81.10
2018-12-21T23:06:02.384Z,75.83
2018-12-21T23:08:33.435Z,72.67
2018-12-21T23:11:04.298Z,77.73
2018-12-21T23:13:36.908Z,74.53
2018-12-21T23:16:08.755Z,73.97
2018-12-21T23:18:41.530Z,75.80
2018-12-21T23:21:13.242Z,80.27
2018-12-21T23:23:46.627Z,82.40
2018-12-21T23:26:17.757Z,67.33
2018-12-21T23:28:48.728Z,79.87
2018-12-21T23:31:21.919Z,70.53
2018-12-21T23:33:52.772Z,68.30
2018-12-21T23:36:26.054Z,70.93
2018-12-21T23:38:56.618Z,67.57
2018-12-21T23:41:29.417Z,72.73
2018-12-21T23:44:00.822Z,74.60
2018-12-21T23:46:35.198Z,69.43
2018-12-21T23:49:08.036Z,70.23
2018-12-21T23:51:39.279Z,71.77
2018-12-21T23:54:13.702Z,69.00
2018-12-21T23:56:44.278Z,70.73
2018-12-21T23:59:20.145Z,76.63
